createdAt,value
2023-01-01T00:01:17.997Z,21.7
2023-01-01T00:06:28.598Z,21.2
2023-01-01T00:11:20.148Z,21.1
2023-01-01T00:16:27.480Z,20.9
2023-01-01T00:21:09.270Z,20.8
2023-01-01T00:26:40.281Z,22.1
2023-01-01T00:31:32.409Z,22.8
2023-01-01T00:36:39.099Z,22.8
2023-01-01T00:41:45.997Z,22.1
2023-01-01T00:46:45.519Z,21.6
2023-01-01T00:51:37.460Z,21.3
2023-01-01T00:56:44.617Z,21
2023-01-01T01:02:06.855Z,20.9
2023-01-01T01:07:15.216Z,21
2023-01-01T01:12:52.578Z,22.1
2023-01-01T01:17:44.291Z,22.3
2023-01-01T01:22:40.164Z,20.7
2023-01-01T01:27:46.770Z,21.6
2023-01-01T01:32:39.672Z,22.5
2023-01-01T01:37:54.343Z,23.2
2023-01-01T01:43:09.336Z,22.8
2023-01-01T01:48:21.218Z,22.3
2023-01-01T01:52:57.472Z,21.8
2023-01-01T01:57:48.920Z,21.7
2023-01-01T02:03:00.290Z,21.6
2023-01-01T02:08:07.450Z,21.8
2023-01-01T02:13:04.112Z,22.8
2023-01-01T02:18:13.589Z,23.5
2023-01-01T02:23:05.114Z,23.4
2023-01-01T02:27:55.619Z,22.7
2023-01-01T02:33:04.936Z,22.2
2023-01-01T02:37:56.585Z,21.8
2023-01-01T02:42:47.684Z,21.6
2023-01-01T02:47:42.421Z,21.6
2023-01-01T02:52:38.320Z,21.9
2023-01-01T02:57:44.410Z,22.8
2023-01-01T03:02:36.193Z,23.3
2023-01-01T03:07:43.116Z,23.3
2023-01-01T03:12:50.800Z,22.6
2023-01-01T03:17:42.945Z,22.2
2023-01-01T03:22:49.184Z,21.8
2023-01-01T03:28:02.364Z,21.6
2023-01-01T03:33:09.608Z,21.6
2023-01-01T03:38:15.919Z,21.9
2023-01-01T03:42:52.440Z,22.8
2023-01-01T03:47:59.469Z,23.2
2023-01-01T03:53:22.303Z,23.3
2023-01-01T03:57:43.149Z,22.7
2023-01-01T04:02:51.369Z,22.3
2023-01-01T04:08:06.683Z,21.9
2023-01-01T04:13:13.494Z,21.7
2023-01-01T04:18:21.304Z,21.6
2023-01-01T04:23:20.451Z,21.7
2023-01-01T04:28:27.077Z,22.4
2023-01-01T04:33:34.444Z,21.3
2023-01-01T04:38:25.486Z,21.2
2023-01-01T04:43:16.920Z,22.4
2023-01-01T04:48:24.701Z,23.1
2023-01-01T04:53:32.065Z,23.1
2023-01-01T04:58:22.898Z,22.4
2023-01-01T05:03:14.907Z,22.1
2023-01-01T05:08:37.370Z,21.8
2023-01-01T05:14:00.283Z,21.6
2023-01-01T05:19:06.987Z,21.4
2023-01-01T05:24:34.744Z,21.8
2023-01-01T05:30:05.520Z,22.8
2023-01-01T05:34:56.477Z,23.3
2023-01-01T05:40:18.865Z,22.9
2023-01-01T05:45:41.984Z,22.4
2023-01-01T05:50:48.923Z,21.8
2023-01-01T05:55:55.436Z,21.6
2023-01-01T06:01:03.124Z,21.4
2023-01-01T06:06:33.568Z,21.4
2023-01-01T06:12:02.547Z,22.3
2023-01-01T06:17:28.635Z,23.1
2023-01-01T06:22:35.661Z,23.2
2023-01-01T06:27:59.554Z,22.6
2023-01-01T06:33:22.897Z,22.1
2023-01-01T06:38:47.304Z,21.4
2023-01-01T06:44:14.138Z,21.1
2023-01-01T06:49:37.581Z,21.3
2023-01-01T06:54:28.101Z,21.4
2023-01-01T06:59:55.657Z,21.9
2023-01-01T07:05:27.884Z,22.3
2023-01-01T07:10:55.450Z,21.6
2023-01-01T07:16:18.410Z,21.1
2023-01-01T07:21:46.787Z,22.1
2023-01-01T07:27:08.462Z,22.5
2023-01-01T07:32:31.259Z,22.1
2023-01-01T07:37:53.765Z,21.6
2023-01-01T07:43:18.170Z,21.2
2023-01-01T07:48:25.143Z,21
2023-01-01T07:53:48.431Z,20.9
2023-01-01T07:59:17.065Z,21.4
2023-01-01T08:04:43.509Z,22.3
2023-01-01T08:10:12.698Z,22.6
2023-01-01T08:15:35.596Z,22.1
2023-01-01T08:21:05.656Z,21.6
2023-01-01T08:26:28.586Z,21.3
2023-01-01T08:31:55.323Z,21.2
2023-01-01T08:42:29.892Z,21.6
2023-01-01T08:47:52.503Z,22.3
2023-01-01T08:53:19.753Z,22.7
2023-01-01T08:58:42.763Z,22.3
2023-01-01T09:04:15.455Z,21.7
2023-01-01T09:09:25.705Z,21.5
2023-01-01T09:14:52.529Z,21.4
2023-01-01T09:20:17.330Z,21.3
2023-01-01T09:25:39.926Z,21.8
2023-01-01T09:31:08.212Z,22.4
2023-01-01T09:36:32.829Z,22.7
2023-01-01T09:41:58.534Z,22.1
2023-01-01T09:47:22.908Z,21.8
2023-01-01T09:52:54.306Z,22
2023-01-01T09:58:08.574Z,22.8
2023-01-01T10:03:22.134Z,22.5
2023-01-01T10:08:29.424Z,22.1
2023-01-01T10:13:52.376Z,21.8
2023-01-01T10:19:16.483Z,22.5
2023-01-01T10:24:27.845Z,22.9
2023-01-01T10:30:01.420Z,22.4
2023-01-01T10:35:10.903Z,22.1
2023-01-01T10:40:35.501Z,22.1
2023-01-01T10:46:05.334Z,23.1
2023-01-01T10:51:36.127Z,22.9
2023-01-01T10:57:01.232Z,22.2
2023-01-01T11:02:25.590Z,21.9
2023-01-01T11:07:56.547Z,22.7
2023-01-01T11:14:10.622Z,23.4
2023-01-01T11:19:33.121Z,22.5
2023-01-01T11:24:59.298Z,22
2023-01-01T11:30:06.353Z,22.4
2023-01-01T11:35:28.533Z,23.6
2023-01-01T11:40:59.228Z,23.1
2023-01-01T11:46:11.579Z,22.5
2023-01-01T11:51:34.107Z,22.3
2023-01-01T11:56:57.203Z,22.7
2023-01-01T12:02:19.070Z,23.7
2023-01-01T12:07:47.982Z,22.9
2023-01-01T12:13:16.801Z,22.5
2023-01-01T12:18:45.534Z,22.3
2023-01-01T12:24:08.547Z,23.1
2023-01-01T12:29:40.289Z,22.8
2023-01-01T12:34:32.407Z,21.9
2023-01-01T12:39:39.932Z,21.5
2023-01-01T12:44:53.003Z,21.4
2023-01-01T12:50:20.356Z,22.6
2023-01-01T12:55:32.959Z,22.3
2023-01-01T13:00:40.681Z,21.7
2023-01-01T13:06:06.136Z,21.3
2023-01-01T13:11:19.468Z,21.6
2023-01-01T13:16:48.612Z,22.5
2023-01-01T13:22:11.074Z,21.8
2023-01-01T13:27:22.164Z,21.5
2023-01-01T13:32:30.422Z,21.3
2023-01-01T13:37:56.595Z,22.4
2023-01-01T13:43:21.998Z,22.1
2023-01-01T13:49:07.069Z,21.4
2023-01-01T14:00:04.248Z,22.8
2023-01-01T14:05:13.641Z,23.2
2023-01-01T14:11:15.881Z,21.8
2023-01-01T14:16:38.593Z,21.1
2023-01-01T14:22:01.943Z,21.8
2023-01-01T14:27:24.743Z,23.4
2023-01-01T14:32:51.653Z,22.6
2023-01-01T14:38:14.951Z,22.3
2023-01-01T14:43:41.891Z,22.8
2023-01-01T14:49:08.143Z,24
2023-01-01T14:54:15.927Z,23.1
2023-01-01T14:59:42.568Z,22.4
2023-01-01T15:05:09.710Z,22.3
2023-01-01T15:10:35.016Z,23.6
2023-01-01T15:16:00.860Z,22.9
2023-01-01T15:21:14.685Z,22.3
2023-01-01T15:26:38.116Z,22
2023-01-01T15:32:08.153Z,22.9
2023-01-01T15:37:30.699Z,22.4
2023-01-01T15:42:53.669Z,22.3
2023-01-01T15:48:01.098Z,22.1
2023-01-01T15:53:29.514Z,22.8
2023-01-01T15:58:36.962Z,24.5
2023-01-01T16:04:00.693Z,24.3
2023-01-01T16:09:29.929Z,23.4
2023-01-01T16:14:57.605Z,23
2023-01-01T16:20:05.756Z,23.8
2023-01-01T16:25:16.976Z,24.3
2023-01-01T16:30:30.014Z,22.8
2023-01-01T16:35:58.611Z,22.1
2023-01-01T16:41:28.074Z,21.9
2023-01-01T16:46:53.110Z,23.1
2023-01-01T16:52:02.482Z,22.5
2023-01-01T16:57:32.555Z,22.4
2023-01-01T17:03:40.071Z,22.3
2023-01-01T17:09:04.961Z,22.9
2023-01-01T17:14:30.644Z,22.9
2023-01-01T17:20:25.194Z,22.4
2023-01-01T17:25:53.929Z,21.8
2023-01-01T17:31:01.086Z,21.4
2023-01-01T17:36:11.872Z,21.4
2023-01-01T17:46:47.852Z,22.9
2023-01-01T17:51:55.637Z,24
2023-01-01T17:57:19.264Z,23.4
2023-01-01T18:02:33.754Z,22.9
2023-01-01T18:08:09.377Z,22.4
2023-01-01T18:13:00.517Z,22.1
2023-01-01T18:18:07.967Z,21.9
2023-01-01T18:23:33.615Z,21.8
2023-01-01T18:29:04.224Z,22.9
2023-01-01T18:34:11.888Z,24.3
2023-01-01T18:39:34.666Z,23.7
2023-01-01T18:45:03.629Z,22.9
2023-01-01T18:50:11.079Z,22.2
2023-01-01T18:55:18.806Z,22.1
2023-01-01T19:00:33.514Z,21.9
2023-01-01T19:05:57.924Z,21.8
2023-01-01T19:11:23.031Z,23.3
2023-01-01T19:16:30.076Z,24.4
2023-01-01T19:21:52.874Z,23.8
2023-01-01T19:27:00.412Z,23
2023-01-01T19:32:25.380Z,23.8
2023-01-01T19:37:48.279Z,24.3
2023-01-01T19:43:11.627Z,23.4
2023-01-01T19:48:41.478Z,22.6
2023-01-01T19:54:10.312Z,22.3
2023-01-01T19:59:33.901Z,22.1
2023-01-01T20:06:13.156Z,21.8
2023-01-01T20:11:35.399Z,23.1
2023-01-01T20:16:43.329Z,23.4
2023-01-01T20:22:10.959Z,23.1
2023-01-01T20:27:17.754Z,22.3
2023-01-01T20:32:45.303Z,21.7
2023-01-01T20:38:06.925Z,21.3
2023-01-01T20:48:38.310Z,20.9
2023-01-01T20:54:00.534Z,22
2023-01-01T20:59:50.997Z,22.8
2023-01-01T21:09:50.811Z,22
2023-01-01T21:15:14.194Z,22.8
2023-01-01T21:20:06.846Z,22.8
2023-01-01T21:25:10.823Z,22.2
2023-01-01T21:30:54.327Z,21.7
2023-01-01T21:35:53.894Z,21.5
2023-01-01T21:40:48.755Z,21.3
2023-01-01T21:45:55.733Z,21.3
2023-01-01T21:51:17.987Z,21.7
2023-01-01T21:56:14.546Z,22.6
2023-01-01T22:01:41.547Z,23
2023-01-01T22:07:23.923Z,22.4
2023-01-01T22:13:10.420Z,21.8
2023-01-01T22:18:22.509Z,21.4
2023-01-01T22:23:50.700Z,21.4
2023-01-01T22:28:57.773Z,21.3
2023-01-01T22:34:19.906Z,21.6
2023-01-01T22:39:50.528Z,22.4
2023-01-01T22:44:58.190Z,21.8
2023-01-01T22:50:21.908Z,20.6
2023-01-01T22:55:14.538Z,21
2023-01-01T23:00:21.832Z,21.6
2023-01-01T23:05:29.646Z,21.7
2023-01-01T23:10:44.438Z,21.6
2023-01-01T23:15:55.698Z,21.7
2023-01-01T23:21:03.051Z,23
2023-01-01T23:26:33.073Z,23.8
2023-01-01T23:31:43.115Z,23.8
2023-01-01T23:37:04.317Z,22.9
2023-01-01T23:42:26.716Z,22.3
2023-01-01T23:47:58.245Z,21.9
2023-01-01T23:53:04.321Z,21.8
2023-01-01T23:58:26.536Z,21.6
